sensor_id;sensor_type;location;lat;lon;timestamp;P1;durP1;ratioP1;P2;durP2;ratioP2
48052;SDS011;33824;51.600;5.718;2022-07-23T00:00:30;7.03;;;2.65;;
48052;SDS011;33824;51.600;5.718;2022-07-23T00:03:02;2.38;;;2.17;;
48052;SDS011;33824;51.600;5.718;2022-07-23T00:05:28;5.20;;;2.63;;
48052;SDS011;33824;51.600;5.718;2022-07-23T00:07:53;5.00;;;2.55;;
48052;SDS011;33824;51.600;5.718;2022-07-23T00:10:19;9.50;;;3.15;;
48052;SDS011;33824;51.600;5.718;2022-07-23T00:12:44;6.13;;;3.45;;
48052;SDS011;33824;51.600;5.718;2022-07-23T00:15:10;4.40;;;2.45;;
48052;SDS011;33824;51.600;5.718;2022-07-23T00:17:35;5.80;;;3.28;;
48052;SDS011;33824;51.600;5.718;2022-07-23T00:20:01;7.97;;;3.33;;
48052;SDS011;33824;51.600;5.718;2022-07-23T00:22:28;4.68;;;2.72;;
48052;SDS011;33824;51.600;5.718;2022-07-23T00:24:54;4.57;;;2.63;;
48052;SDS011;33824;51.600;5.718;2022-07-23T00:27:20;5.05;;;2.80;;
48052;SDS011;33824;51.600;5.718;2022-07-23T00:29:46;5.60;;;2.97;;
48052;SDS011;33824;51.600;5.718;2022-07-23T00:32:12;5.90;;;2.67;;
48052;SDS011;33824;51.600;5.718;2022-07-23T00:34:37;5.35;;;3.00;;
48052;SDS011;33824;51.600;5.718;2022-07-23T00:37:03;8.85;;;3.00;;
48052;SDS011;33824;51.600;5.718;2022-07-23T00:39:28;5.28;;;2.42;;
48052;SDS011;33824;51.600;5.718;2022-07-23T00:41:53;4.35;;;2.45;;
48052;SDS011;33824;51.600;5.718;2022-07-23T00:44:23;5.65;;;3.00;;
48052;SDS011;33824;51.600;5.718;2022-07-23T00:46:55;6.65;;;2.70;;
48052;SDS011;33824;51.600;5.718;2022-07-23T00:49:22;11.20;;;3.28;;
48052;SDS011;33824;51.600;5.718;2022-07-23T00:51:50;6.28;;;2.38;;
48052;SDS011;33824;51.600;5.718;2022-07-23T00:54:17;3.17;;;2.40;;
48052;SDS011;33824;51.600;5.718;2022-07-23T00:56:44;4.68;;;2.58;;
48052;SDS011;33824;51.600;5.718;2022-07-23T00:59:10;6.30;;;2.40;;
48052;SDS011;33824;51.600;5.718;2022-07-23T01:01:36;4.47;;;3.03;;
48052;SDS011;33824;51.600;5.718;2022-07-23T01:04:02;8.38;;;3.03;;
48052;SDS011;33824;51.600;5.718;2022-07-23T01:06:27;5.65;;;2.88;;
48052;SDS011;33824;51.600;5.718;2022-07-23T01:08:54;8.50;;;2.80;;
48052;SDS011;33824;51.600;5.718;2022-07-23T01:11:20;5.43;;;2.75;;
48052;SDS011;33824;51.600;5.718;2022-07-23T01:13:47;4.07;;;2.55;;
48052;SDS011;33824;51.600;5.718;2022-07-23T01:16:13;9.07;;;2.63;;
48052;SDS011;33824;51.600;5.718;2022-07-23T01:18:41;8.23;;;2.83;;
48052;SDS011;33824;51.600;5.718;2022-07-23T01:21:07;6.32;;;2.67;;
48052;SDS011;33824;51.600;5.718;2022-07-23T01:23:38;6.23;;;3.03;;
48052;SDS011;33824;51.600;5.718;2022-07-23T01:26:04;12.30;;;2.95;;
48052;SDS011;33824;51.600;5.718;2022-07-23T01:28:29;7.95;;;3.38;;
48052;SDS011;33824;51.600;5.718;2022-07-23T01:30:55;5.15;;;2.67;;
48052;SDS011;33824;51.600;5.718;2022-07-23T01:33:20;6.93;;;3.30;;
48052;SDS011;33824;51.600;5.718;2022-07-23T01:35:46;5.38;;;2.80;;
48052;SDS011;33824;51.600;5.718;2022-07-23T01:38:11;7.05;;;3.03;;
48052;SDS011;33824;51.600;5.718;2022-07-23T01:40:37;4.75;;;2.58;;
48052;SDS011;33824;51.600;5.718;2022-07-23T01:43:02;4.40;;;2.50;;
48052;SDS011;33824;51.600;5.718;2022-07-23T01:45:28;5.38;;;2.90;;
48052;SDS011;33824;51.600;5.718;2022-07-23T01:47:53;6.43;;;2.92;;
48052;SDS011;33824;51.600;5.718;2022-07-23T01:50:18;8.18;;;3.83;;
48052;SDS011;33824;51.600;5.718;2022-07-23T01:52:44;6.95;;;3.00;;
48052;SDS011;33824;51.600;5.718;2022-07-23T01:55:09;12.60;;;4.60;;
48052;SDS011;33824;51.600;5.718;2022-07-23T01:57:35;5.90;;;3.15;;
48052;SDS011;33824;51.600;5.718;2022-07-23T02:00:01;9.32;;;2.95;;
48052;SDS011;33824;51.600;5.718;2022-07-23T02:02:26;7.00;;;2.78;;
48052;SDS011;33824;51.600;5.718;2022-07-23T02:04:52;6.43;;;2.85;;
48052;SDS011;33824;51.600;5.718;2022-07-23T02:07:17;4.78;;;2.90;;
48052;SDS011;33824;51.600;5.718;2022-07-23T02:09:43;8.25;;;2.72;;
48052;SDS011;33824;51.600;5.718;2022-07-23T02:12:08;9.82;;;3.28;;
48052;SDS011;33824;51.600;5.718;2022-07-23T02:14:34;7.70;;;3.10;;
48052;SDS011;33824;51.600;5.718;2022-07-23T02:16:59;4.70;;;2.78;;
48052;SDS011;33824;51.600;5.718;2022-07-23T02:19:25;6.85;;;2.88;;
48052;SDS011;33824;51.600;5.718;2022-07-23T02:21:50;5.18;;;2.95;;
48052;SDS011;33824;51.600;5.718;2022-07-23T02:24:16;5.28;;;2.92;;
48052;SDS011;33824;51.600;5.718;2022-07-23T02:26:42;11.30;;;2.75;;
48052;SDS011;33824;51.600;5.718;2022-07-23T02:29:08;8.15;;;2.92;;
48052;SDS011;33824;51.600;5.718;2022-07-23T02:31:33;3.53;;;2.70;;
48052;SDS011;33824;51.600;5.718;2022-07-23T02:33:59;6.70;;;2.97;;
48052;SDS011;33824;51.600;5.718;2022-07-23T02:36:25;4.63;;;2.80;;
48052;SDS011;33824;51.600;5.718;2022-07-23T02:38:50;4.65;;;2.53;;
48052;SDS011;33824;51.600;5.718;2022-07-23T02:41:16;4.57;;;2.25;;
48052;SDS011;33824;51.600;5.718;2022-07-23T02:43:41;4.03;;;2.50;;
48052;SDS011;33824;51.600;5.718;2022-07-23T02:46:07;5.05;;;2.90;;
48052;SDS011;33824;51.600;5.718;2022-07-23T02:48:32;4.35;;;2.80;;
48052;SDS011;33824;51.600;5.718;2022-07-23T02:50:58;7.03;;;2.60;;
48052;SDS011;33824;51.600;5.718;2022-07-23T02:53:24;3.35;;;2.25;;
48052;SDS011;33824;51.600;5.718;2022-07-23T02:55:49;8.57;;;2.33;;
48052;SDS011;33824;51.600;5.718;2022-07-23T02:58:15;7.95;;;2.58;;
48052;SDS011;33824;51.600;5.718;2022-07-23T03:00:40;5.55;;;2.72;;
48052;SDS011;33824;51.600;5.718;2022-07-23T03:03:05;9.73;;;2.72;;
48052;SDS011;33824;51.600;5.718;2022-07-23T03:05:33;5.13;;;3.15;;
48052;SDS011;33824;51.600;5.718;2022-07-23T03:07:58;5.25;;;2.90;;
48052;SDS011;33824;51.600;5.718;2022-07-23T03:10:24;5.55;;;2.80;;
48052;SDS011;33824;51.600;5.718;2022-07-23T03:12:50;4.30;;;2.90;;
48052;SDS011;33824;51.600;5.718;2022-07-23T03:15:15;6.97;;;3.65;;
48052;SDS011;33824;51.600;5.718;2022-07-23T03:17:40;8.10;;;2.88;;
48052;SDS011;33824;51.600;5.718;2022-07-23T03:20:06;5.13;;;2.70;;
48052;SDS011;33824;51.600;5.718;2022-07-23T03:22:32;18.92;;;3.42;;
48052;SDS011;33824;51.600;5.718;2022-07-23T03:24:58;6.15;;;3.35;;
48052;SDS011;33824;51.600;5.718;2022-07-23T03:27:24;9.65;;;2.80;;
48052;SDS011;33824;51.600;5.718;2022-07-23T03:29:51;8.98;;;2.97;;
48052;SDS011;33824;51.600;5.718;2022-07-23T03:32:17;6.65;;;2.65;;
48052;SDS011;33824;51.600;5.718;2022-07-23T03:34:43;5.70;;;2.85;;
48052;SDS011;33824;51.600;5.718;2022-07-23T03:37:09;4.70;;;2.55;;
48052;SDS011;33824;51.600;5.718;2022-07-23T03:39:34;5.40;;;2.60;;
48052;SDS011;33824;51.600;5.718;2022-07-23T03:42:00;8.98;;;2.85;;
48052;SDS011;33824;51.600;5.718;2022-07-23T03:44:25;6.63;;;2.90;;
48052;SDS011;33824;51.600;5.718;2022-07-23T03:46:51;5.20;;;2.75;;
48052;SDS011;33824;51.600;5.718;2022-07-23T03:49:17;8.55;;;3.67;;
48052;SDS011;33824;51.600;5.718;2022-07-23T03:51:42;5.72;;;3.00;;
48052;SDS011;33824;51.600;5.718;2022-07-23T03:54:08;6.22;;;2.85;;
48052;SDS011;33824;51.600;5.718;2022-07-23T03:56:34;4.68;;;2.78;;
48052;SDS011;33824;51.600;5.718;2022-07-23T03:58:59;7.65;;;2.92;;
48052;SDS011;33824;51.600;5.718;2022-07-23T04:01:25;3.75;;;2.28;;
48052;SDS011;33824;51.600;5.718;2022-07-23T04:03:50;6.38;;;2.70;;
48052;SDS011;33824;51.600;5.718;2022-07-23T04:06:16;10.93;;;2.63;;
48052;SDS011;33824;51.600;5.718;2022-07-23T04:08:41;9.77;;;2.90;;
48052;SDS011;33824;51.600;5.718;2022-07-23T04:11:06;9.80;;;4.28;;
48052;SDS011;33824;51.600;5.718;2022-07-23T04:13:32;5.45;;;3.05;;
48052;SDS011;33824;51.600;5.718;2022-07-23T04:15:57;6.53;;;2.83;;
48052;SDS011;33824;51.600;5.718;2022-07-23T04:18:23;9.50;;;2.92;;
48052;SDS011;33824;51.600;5.718;2022-07-23T04:20:52;4.10;;;2.65;;
48052;SDS011;33824;51.600;5.718;2022-07-23T04:23:18;3.40;;;2.63;;
48052;SDS011;33824;51.600;5.718;2022-07-23T04:25:44;4.97;;;2.60;;
48052;SDS011;33824;51.600;5.718;2022-07-23T04:28:09;8.15;;;2.75;;
48052;SDS011;33824;51.600;5.718;2022-07-23T04:30:35;6.82;;;2.80;;
48052;SDS011;33824;51.600;5.718;2022-07-23T04:33:01;11.20;;;3.30;;
48052;SDS011;33824;51.600;5.718;2022-07-23T04:35:26;8.60;;;2.70;;
48052;SDS011;33824;51.600;5.718;2022-07-23T04:37:51;6.95;;;2.78;;
48052;SDS011;33824;51.600;5.718;2022-07-23T04:40:17;7.40;;;3.30;;
48052;SDS011;33824;51.600;5.718;2022-07-23T04:42:43;9.25;;;3.65;;
48052;SDS011;33824;51.600;5.718;2022-07-23T04:45:08;9.07;;;3.47;;
48052;SDS011;33824;51.600;5.718;2022-07-23T04:47:34;4.60;;;3.20;;
48052;SDS011;33824;51.600;5.718;2022-07-23T04:49:59;6.07;;;3.33;;
48052;SDS011;33824;51.600;5.718;2022-07-23T04:52:25;4.97;;;3.17;;
48052;SDS011;33824;51.600;5.718;2022-07-23T04:54:50;9.10;;;3.58;;
48052;SDS011;33824;51.600;5.718;2022-07-23T04:57:16;6.32;;;3.72;;
48052;SDS011;33824;51.600;5.718;2022-07-23T04:59:41;5.55;;;3.63;;
48052;SDS011;33824;51.600;5.718;2022-07-23T05:02:07;6.53;;;3.55;;
48052;SDS011;33824;51.600;5.718;2022-07-23T05:04:32;5.50;;;3.45;;
48052;SDS011;33824;51.600;5.718;2022-07-23T05:06:58;5.78;;;3.55;;
48052;SDS011;33824;51.600;5.718;2022-07-23T05:09:24;6.45;;;3.85;;
48052;SDS011;33824;51.600;5.718;2022-07-23T05:11:49;5.30;;;3.33;;
48052;SDS011;33824;51.600;5.718;2022-07-23T05:14:15;6.07;;;4.53;;
48052;SDS011;33824;51.600;5.718;2022-07-23T05:16:40;10.95;;;4.40;;
48052;SDS011;33824;51.600;5.718;2022-07-23T05:19:06;11.23;;;4.63;;
48052;SDS011;33824;51.600;5.718;2022-07-23T05:21:31;5.40;;;4.07;;
48052;SDS011;33824;51.600;5.718;2022-07-23T05:23:57;6.25;;;3.70;;
48052;SDS011;33824;51.600;5.718;2022-07-23T05:26:23;6.63;;;3.88;;
48052;SDS011;33824;51.600;5.718;2022-07-23T05:28:49;8.00;;;3.60;;
48052;SDS011;33824;51.600;5.718;2022-07-23T05:31:15;10.43;;;4.13;;
48052;SDS011;33824;51.600;5.718;2022-07-23T05:33:41;6.68;;;3.90;;
48052;SDS011;33824;51.600;5.718;2022-07-23T05:36:06;7.88;;;3.88;;
48052;SDS011;33824;51.600;5.718;2022-07-23T05:38:32;8.27;;;4.07;;
48052;SDS011;33824;51.600;5.718;2022-07-23T05:40:58;8.20;;;4.05;;
48052;SDS011;33824;51.600;5.718;2022-07-23T05:43:23;5.78;;;3.70;;
48052;SDS011;33824;51.600;5.718;2022-07-23T05:45:49;11.35;;;4.53;;
48052;SDS011;33824;51.600;5.718;2022-07-23T05:48:15;7.20;;;4.45;;
48052;SDS011;33824;51.600;5.718;2022-07-23T05:50:40;6.57;;;4.47;;
48052;SDS011;33824;51.600;5.718;2022-07-23T05:53:06;6.53;;;4.28;;
48052;SDS011;33824;51.600;5.718;2022-07-23T05:55:31;6.30;;;4.00;;
48052;SDS011;33824;51.600;5.718;2022-07-23T05:57:57;5.13;;;4.05;;
48052;SDS011;33824;51.600;5.718;2022-07-23T06:00:24;8.07;;;4.30;;
48052;SDS011;33824;51.600;5.718;2022-07-23T06:02:50;10.50;;;4.57;;
48052;SDS011;33824;51.600;5.718;2022-07-23T06:05:15;5.50;;;3.60;;
48052;SDS011;33824;51.600;5.718;2022-07-23T06:07:41;8.63;;;4.32;;
48052;SDS011;33824;51.600;5.718;2022-07-23T06:10:07;4.80;;;3.28;;
48052;SDS011;33824;51.600;5.718;2022-07-23T06:12:33;5.35;;;3.63;;
48052;SDS011;33824;51.600;5.718;2022-07-23T06:14:59;9.80;;;3.78;;
48052;SDS011;33824;51.600;5.718;2022-07-23T06:17:24;5.72;;;3.53;;
48052;SDS011;33824;51.600;5.718;2022-07-23T06:19:50;10.35;;;3.90;;
48052;SDS011;33824;51.600;5.718;2022-07-23T06:22:15;4.40;;;3.30;;
48052;SDS011;33824;51.600;5.718;2022-07-23T06:24:41;5.40;;;3.78;;
48052;SDS011;33824;51.600;5.718;2022-07-23T06:27:06;6.93;;;3.58;;
48052;SDS011;33824;51.600;5.718;2022-07-23T06:29:32;7.28;;;3.58;;
48052;SDS011;33824;51.600;5.718;2022-07-23T06:31:57;6.85;;;3.25;;
48052;SDS011;33824;51.600;5.718;2022-07-23T06:34:23;6.05;;;3.35;;
48052;SDS011;33824;51.600;5.718;2022-07-23T06:36:49;15.85;;;2.83;;
48052;SDS011;33824;51.600;5.718;2022-07-23T06:39:14;13.57;;;4.05;;
48052;SDS011;33824;51.600;5.718;2022-07-23T06:41:40;10.73;;;4.15;;
48052;SDS011;33824;51.600;5.718;2022-07-23T06:44:05;4.78;;;2.63;;
48052;SDS011;33824;51.600;5.718;2022-07-23T06:46:31;7.28;;;2.80;;
48052;SDS011;33824;51.600;5.718;2022-07-23T06:48:59;5.55;;;2.92;;
48052;SDS011;33824;51.600;5.718;2022-07-23T06:51:25;9.68;;;2.58;;
48052;SDS011;33824;51.600;5.718;2022-07-23T06:53:50;4.10;;;3.03;;
48052;SDS011;33824;51.600;5.718;2022-07-23T06:56:15;4.40;;;2.90;;
48052;SDS011;33824;51.600;5.718;2022-07-23T06:58:41;4.72;;;3.15;;
48052;SDS011;33824;51.600;5.718;2022-07-23T07:01:06;5.18;;;3.10;;
48052;SDS011;33824;51.600;5.718;2022-07-23T07:03:32;6.72;;;2.90;;
48052;SDS011;33824;51.600;5.718;2022-07-23T07:05:57;4.68;;;2.75;;
48052;SDS011;33824;51.600;5.718;2022-07-23T07:08:23;7.80;;;3.22;;
48052;SDS011;33824;51.600;5.718;2022-07-23T07:10:49;8.55;;;3.38;;
48052;SDS011;33824;51.600;5.718;2022-07-23T07:13:15;8.55;;;3.33;;
48052;SDS011;33824;51.600;5.718;2022-07-23T07:15:40;8.27;;;3.33;;
48052;SDS011;33824;51.600;5.718;2022-07-23T07:18:06;6.75;;;3.40;;
48052;SDS011;33824;51.600;5.718;2022-07-23T07:20:32;7.43;;;3.20;;
48052;SDS011;33824;51.600;5.718;2022-07-23T07:22:57;9.02;;;2.67;;
48052;SDS011;33824;51.600;5.718;2022-07-23T07:25:23;4.05;;;2.70;;
48052;SDS011;33824;51.600;5.718;2022-07-23T07:27:49;5.68;;;2.70;;
48052;SDS011;33824;51.600;5.718;2022-07-23T07:30:14;3.83;;;2.55;;
48052;SDS011;33824;51.600;5.718;2022-07-23T07:32:40;6.03;;;2.85;;
48052;SDS011;33824;51.600;5.718;2022-07-23T07:35:09;3.45;;;2.15;;
48052;SDS011;33824;51.600;5.718;2022-07-23T07:37:34;5.85;;;2.90;;
48052;SDS011;33824;51.600;5.718;2022-07-23T07:40:00;3.60;;;2.63;;
48052;SDS011;33824;51.600;5.718;2022-07-23T07:42:25;4.47;;;2.70;;
48052;SDS011;33824;51.600;5.718;2022-07-23T07:44:51;5.57;;;2.80;;
48052;SDS011;33824;51.600;5.718;2022-07-23T07:47:16;7.55;;;2.80;;
48052;SDS011;33824;51.600;5.718;2022-07-23T07:49:42;10.35;;;3.45;;
48052;SDS011;33824;51.600;5.718;2022-07-23T07:52:08;8.13;;;3.47;;
48052;SDS011;33824;51.600;5.718;2022-07-23T07:54:34;4.43;;;3.40;;
48052;SDS011;33824;51.600;5.718;2022-07-23T07:56:59;4.85;;;2.70;;
48052;SDS011;33824;51.600;5.718;2022-07-23T07:59:25;5.47;;;2.72;;
48052;SDS011;33824;51.600;5.718;2022-07-23T08:01:50;7.82;;;3.17;;
48052;SDS011;33824;51.600;5.718;2022-07-23T08:04:16;4.88;;;2.70;;
48052;SDS011;33824;51.600;5.718;2022-07-23T08:06:41;7.20;;;3.38;;
48052;SDS011;33824;51.600;5.718;2022-07-23T08:09:07;4.57;;;3.47;;
48052;SDS011;33824;51.600;5.718;2022-07-23T08:11:34;7.25;;;3.10;;
48052;SDS011;33824;51.600;5.718;2022-07-23T08:14:00;5.05;;;3.42;;
48052;SDS011;33824;51.600;5.718;2022-07-23T08:16:25;7.53;;;3.08;;
48052;SDS011;33824;51.600;5.718;2022-07-23T08:18:51;5.72;;;2.78;;
48052;SDS011;33824;51.600;5.718;2022-07-23T08:21:16;9.35;;;3.20;;
48052;SDS011;33824;51.600;5.718;2022-07-23T08:23:42;6.68;;;3.03;;
48052;SDS011;33824;51.600;5.718;2022-07-23T08:26:07;6.75;;;3.42;;
48052;SDS011;33824;51.600;5.718;2022-07-23T08:28:33;6.55;;;2.92;;
48052;SDS011;33824;51.600;5.718;2022-07-23T08:30:59;8.13;;;3.17;;
48052;SDS011;33824;51.600;5.718;2022-07-23T08:33:25;6.47;;;2.70;;
48052;SDS011;33824;51.600;5.718;2022-07-23T08:35:50;4.85;;;3.00;;
48052;SDS011;33824;51.600;5.718;2022-07-23T08:38:21;6.10;;;2.65;;
48052;SDS011;33824;51.600;5.718;2022-07-23T08:40:48;6.47;;;2.72;;
48052;SDS011;33824;51.600;5.718;2022-07-23T08:43:18;6.60;;;3.20;;
48052;SDS011;33824;51.600;5.718;2022-07-23T08:45:45;3.72;;;2.83;;
48052;SDS011;33824;51.600;5.718;2022-07-23T08:48:18;5.07;;;2.60;;
48052;SDS011;33824;51.600;5.718;2022-07-23T08:50:49;3.42;;;2.33;;
48052;SDS011;33824;51.600;5.718;2022-07-23T08:53:17;5.55;;;3.05;;
48052;SDS011;33824;51.600;5.718;2022-07-23T08:55:48;7.53;;;2.88;;
48052;SDS011;33824;51.600;5.718;2022-07-23T08:58:15;3.95;;;2.53;;
48052;SDS011;33824;51.600;5.718;2022-07-23T09:00:42;5.43;;;2.45;;
48052;SDS011;33824;51.600;5.718;2022-07-23T09:03:10;2.58;;;1.88;;
48052;SDS011;33824;51.600;5.718;2022-07-23T09:05:41;3.92;;;2.30;;
48052;SDS011;33824;51.600;5.718;2022-07-23T09:08:07;6.60;;;2.30;;
48052;SDS011;33824;51.600;5.718;2022-07-23T09:13:27;6.05;;;3.10;;
48052;SDS011;33824;51.600;5.718;2022-07-23T09:16:00;6.93;;;2.90;;
48052;SDS011;33824;51.600;5.718;2022-07-23T09:18:28;4.57;;;2.38;;
48052;SDS011;33824;51.600;5.718;2022-07-23T09:21:07;6.40;;;3.08;;
48052;SDS011;33824;51.600;5.718;2022-07-23T09:23:36;5.78;;;2.90;;
48052;SDS011;33824;51.600;5.718;2022-07-23T09:26:07;6.80;;;2.85;;
48052;SDS011;33824;51.600;5.718;2022-07-23T09:28:53;7.47;;;2.47;;
48052;SDS011;33824;51.600;5.718;2022-07-23T09:31:22;6.30;;;2.40;;
48052;SDS011;33824;51.600;5.718;2022-07-23T09:33:49;4.90;;;2.80;;
48052;SDS011;33824;51.600;5.718;2022-07-23T09:36:14;3.70;;;2.45;;
48052;SDS011;33824;51.600;5.718;2022-07-23T09:38:50;5.78;;;2.40;;
48052;SDS011;33824;51.600;5.718;2022-07-23T09:41:16;3.25;;;2.40;;
48052;SDS011;33824;51.600;5.718;2022-07-23T09:43:42;3.60;;;2.58;;
48052;SDS011;33824;51.600;5.718;2022-07-23T09:48:44;3.28;;;2.45;;
48052;SDS011;33824;51.600;5.718;2022-07-23T09:51:10;4.60;;;2.20;;
48052;SDS011;33824;51.600;5.718;2022-07-23T09:53:35;3.70;;;2.30;;
48052;SDS011;33824;51.600;5.718;2022-07-23T09:56:01;5.78;;;2.90;;
48052;SDS011;33824;51.600;5.718;2022-07-23T09:58:27;4.00;;;2.80;;
48052;SDS011;33824;51.600;5.718;2022-07-23T10:00:53;5.97;;;3.00;;
48052;SDS011;33824;51.600;5.718;2022-07-23T10:03:20;6.70;;;2.97;;
48052;SDS011;33824;51.600;5.718;2022-07-23T10:05:45;4.53;;;2.40;;
48052;SDS011;33824;51.600;5.718;2022-07-23T10:08:12;7.25;;;3.55;;
48052;SDS011;33824;51.600;5.718;2022-07-23T10:10:41;3.90;;;2.60;;
48052;SDS011;33824;51.600;5.718;2022-07-23T10:13:07;5.50;;;2.70;;
48052;SDS011;33824;51.600;5.718;2022-07-23T10:16:02;5.57;;;3.10;;
48052;SDS011;33824;51.600;5.718;2022-07-23T10:18:28;4.82;;;3.55;;
48052;SDS011;33824;51.600;5.718;2022-07-23T10:20:55;4.75;;;3.38;;
48052;SDS011;33824;51.600;5.718;2022-07-23T10:23:28;3.95;;;2.92;;
48052;SDS011;33824;51.600;5.718;2022-07-23T10:31:47;3.60;;;2.78;;
48052;SDS011;33824;51.600;5.718;2022-07-23T10:37:21;4.32;;;2.95;;
48052;SDS011;33824;51.600;5.718;2022-07-23T10:40:11;4.85;;;2.60;;
48052;SDS011;33824;51.600;5.718;2022-07-23T10:42:42;7.85;;;2.90;;
48052;SDS011;33824;51.600;5.718;2022-07-23T10:45:22;6.25;;;2.75;;
48052;SDS011;33824;51.600;5.718;2022-07-23T10:47:50;7.25;;;3.15;;
48052;SDS011;33824;51.600;5.718;2022-07-23T10:50:17;5.35;;;2.85;;
48052;SDS011;33824;51.600;5.718;2022-07-23T10:53:08;5.32;;;2.80;;
48052;SDS011;33824;51.600;5.718;2022-07-23T10:55:45;5.28;;;2.47;;
48052;SDS011;33824;51.600;5.718;2022-07-23T10:58:16;3.05;;;1.95;;
48052;SDS011;33824;51.600;5.718;2022-07-23T11:00:44;7.80;;;2.25;;
48052;SDS011;33824;51.600;5.718;2022-07-23T11:03:29;3.13;;;2.25;;
48052;SDS011;33824;51.600;5.718;2022-07-23T11:05:59;4.78;;;2.53;;
48052;SDS011;33824;51.600;5.718;2022-07-23T11:08:25;4.72;;;3.05;;
48052;SDS011;33824;51.600;5.718;2022-07-23T11:10:54;4.75;;;2.00;;
48052;SDS011;33824;51.600;5.718;2022-07-23T11:13:35;3.67;;;1.67;;
48052;SDS011;33824;51.600;5.718;2022-07-23T11:24:05;3.88;;;2.33;;
48052;SDS011;33824;51.600;5.718;2022-07-23T11:26:50;6.82;;;2.42;;
48052;SDS011;33824;51.600;5.718;2022-07-23T11:31:56;6.40;;;2.40;;
48052;SDS011;33824;51.600;5.718;2022-07-23T11:34:42;6.18;;;2.22;;
48052;SDS011;33824;51.600;5.718;2022-07-23T11:37:11;4.03;;;2.05;;
48052;SDS011;33824;51.600;5.718;2022-07-23T11:39:54;4.30;;;2.33;;
48052;SDS011;33824;51.600;5.718;2022-07-23T11:42:20;5.15;;;2.42;;
48052;SDS011;33824;51.600;5.718;2022-07-23T11:44:46;3.92;;;2.20;;
48052;SDS011;33824;51.600;5.718;2022-07-23T11:47:12;6.97;;;2.40;;
48052;SDS011;33824;51.600;5.718;2022-07-23T11:49:38;5.78;;;2.60;;
48052;SDS011;33824;51.600;5.718;2022-07-23T11:54:40;2.88;;;2.20;;
48052;SDS011;33824;51.600;5.718;2022-07-23T11:57:33;4.22;;;2.63;;
48052;SDS011;33824;51.600;5.718;2022-07-23T12:00:13;3.92;;;2.20;;
48052;SDS011;33824;51.600;5.718;2022-07-23T12:02:45;3.17;;;2.33;;
48052;SDS011;33824;51.600;5.718;2022-07-23T12:05:13;5.93;;;2.17;;
48052;SDS011;33824;51.600;5.718;2022-07-23T12:07:43;3.05;;;2.35;;
48052;SDS011;33824;51.600;5.718;2022-07-23T12:10:28;5.95;;;2.20;;
48052;SDS011;33824;51.600;5.718;2022-07-23T12:13:02;3.20;;;2.10;;
48052;SDS011;33824;51.600;5.718;2022-07-23T12:15:35;4.10;;;2.45;;
48052;SDS011;33824;51.600;5.718;2022-07-23T12:18:04;5.95;;;2.60;;
48052;SDS011;33824;51.600;5.718;2022-07-23T12:20:36;3.63;;;2.30;;
48052;SDS011;33824;51.600;5.718;2022-07-23T12:23:06;2.35;;;2.08;;
48052;SDS011;33824;51.600;5.718;2022-07-23T12:25:33;6.07;;;2.85;;
48052;SDS011;33824;51.600;5.718;2022-07-23T12:30:37;3.88;;;2.70;;
48052;SDS011;33824;51.600;5.718;2022-07-23T12:33:11;4.47;;;2.55;;
48052;SDS011;33824;51.600;5.718;2022-07-23T12:35:48;3.85;;;2.47;;
48052;SDS011;33824;51.600;5.718;2022-07-23T12:38:15;3.85;;;2.40;;
48052;SDS011;33824;51.600;5.718;2022-07-23T12:40:49;3.53;;;2.47;;
48052;SDS011;33824;51.600;5.718;2022-07-23T12:43:23;3.30;;;1.80;;
48052;SDS011;33824;51.600;5.718;2022-07-23T12:51:03;3.92;;;2.00;;
48052;SDS011;33824;51.600;5.718;2022-07-23T12:53:37;3.78;;;2.20;;
48052;SDS011;33824;51.600;5.718;2022-07-23T13:04:02;4.00;;;2.58;;
48052;SDS011;33824;51.600;5.718;2022-07-23T13:06:29;3.90;;;2.00;;
48052;SDS011;33824;51.600;5.718;2022-07-23T13:08:57;2.67;;;2.10;;
48052;SDS011;33824;51.600;5.718;2022-07-23T13:11:22;5.30;;;2.75;;
48052;SDS011;33824;51.600;5.718;2022-07-23T13:13:49;5.28;;;2.30;;
48052;SDS011;33824;51.600;5.718;2022-07-23T13:16:14;4.90;;;2.47;;
48052;SDS011;33824;51.600;5.718;2022-07-23T13:18:40;3.25;;;2.03;;
48052;SDS011;33824;51.600;5.718;2022-07-23T13:21:05;4.75;;;1.80;;
48052;SDS011;33824;51.600;5.718;2022-07-23T13:23:31;4.63;;;2.20;;
48052;SDS011;33824;51.600;5.718;2022-07-23T13:25:56;7.78;;;1.65;;
48052;SDS011;33824;51.600;5.718;2022-07-23T13:28:22;2.92;;;1.73;;
48052;SDS011;33824;51.600;5.718;2022-07-23T13:30:48;3.72;;;1.60;;
48052;SDS011;33824;51.600;5.718;2022-07-23T13:33:19;4.93;;;1.70;;
48052;SDS011;33824;51.600;5.718;2022-07-23T13:38:12;2.92;;;1.45;;
48052;SDS011;33824;51.600;5.718;2022-07-23T13:40:39;6.82;;;1.75;;
48052;SDS011;33824;51.600;5.718;2022-07-23T13:43:11;2.55;;;1.75;;
48052;SDS011;33824;51.600;5.718;2022-07-23T13:45:39;2.97;;;1.50;;
48052;SDS011;33824;51.600;5.718;2022-07-23T13:48:06;4.07;;;1.55;;
48052;SDS011;33824;51.600;5.718;2022-07-23T13:50:32;1.88;;;1.40;;
48052;SDS011;33824;51.600;5.718;2022-07-23T13:53:00;5.50;;;2.05;;
48052;SDS011;33824;51.600;5.718;2022-07-23T13:55:27;4.68;;;1.75;;
48052;SDS011;33824;51.600;5.718;2022-07-23T13:57:52;4.95;;;1.92;;
48052;SDS011;33824;51.600;5.718;2022-07-23T14:00:18;2.58;;;1.48;;
48052;SDS011;33824;51.600;5.718;2022-07-23T14:02:43;4.22;;;1.90;;
48052;SDS011;33824;51.600;5.718;2022-07-23T14:05:09;3.53;;;1.55;;
48052;SDS011;33824;51.600;5.718;2022-07-23T14:07:36;6.72;;;2.40;;
48052;SDS011;33824;51.600;5.718;2022-07-23T14:10:03;3.03;;;1.52;;
48052;SDS011;33824;51.600;5.718;2022-07-23T14:12:30;4.55;;;2.00;;
48052;SDS011;33824;51.600;5.718;2022-07-23T14:14:59;4.70;;;1.73;;
48052;SDS011;33824;51.600;5.718;2022-07-23T14:17:25;3.15;;;1.50;;
48052;SDS011;33824;51.600;5.718;2022-07-23T14:19:50;7.45;;;2.10;;
48052;SDS011;33824;51.600;5.718;2022-07-23T14:22:16;2.70;;;1.98;;
48052;SDS011;33824;51.600;5.718;2022-07-23T14:24:41;2.78;;;1.90;;
48052;SDS011;33824;51.600;5.718;2022-07-23T14:27:08;3.20;;;1.65;;
48052;SDS011;33824;51.600;5.718;2022-07-23T14:29:34;5.00;;;1.98;;
48052;SDS011;33824;51.600;5.718;2022-07-23T14:32:00;3.60;;;1.98;;
48052;SDS011;33824;51.600;5.718;2022-07-23T14:34:25;3.08;;;1.55;;
48052;SDS011;33824;51.600;5.718;2022-07-23T14:36:51;4.88;;;2.05;;
48052;SDS011;33824;51.600;5.718;2022-07-23T14:39:17;4.20;;;1.73;;
48052;SDS011;33824;51.600;5.718;2022-07-23T14:41:42;2.60;;;1.80;;
48052;SDS011;33824;51.600;5.718;2022-07-23T14:44:08;4.10;;;1.92;;
48052;SDS011;33824;51.600;5.718;2022-07-23T14:46:33;3.35;;;2.03;;
48052;SDS011;33824;51.600;5.718;2022-07-23T14:48:59;7.72;;;2.00;;
48052;SDS011;33824;51.600;5.718;2022-07-23T14:51:24;4.15;;;1.70;;
48052;SDS011;33824;51.600;5.718;2022-07-23T14:53:50;4.97;;;2.40;;
48052;SDS011;33824;51.600;5.718;2022-07-23T14:56:15;3.75;;;1.75;;
48052;SDS011;33824;51.600;5.718;2022-07-23T14:58:41;4.53;;;2.30;;
48052;SDS011;33824;51.600;5.718;2022-07-23T15:01:07;3.28;;;2.28;;
48052;SDS011;33824;51.600;5.718;2022-07-23T15:03:33;4.90;;;2.25;;
48052;SDS011;33824;51.600;5.718;2022-07-23T15:05:59;3.42;;;2.10;;
48052;SDS011;33824;51.600;5.718;2022-07-23T15:08:24;2.85;;;1.98;;
48052;SDS011;33824;51.600;5.718;2022-07-23T15:10:50;3.60;;;1.98;;
48052;SDS011;33824;51.600;5.718;2022-07-23T15:13:16;3.97;;;2.00;;
48052;SDS011;33824;51.600;5.718;2022-07-23T15:15:41;3.22;;;2.45;;
48052;SDS011;33824;51.600;5.718;2022-07-23T15:18:07;4.30;;;1.67;;
48052;SDS011;33824;51.600;5.718;2022-07-23T15:20:32;2.75;;;1.60;;
48052;SDS011;33824;51.600;5.718;2022-07-23T15:22:58;4.28;;;2.42;;
48052;SDS011;33824;51.600;5.718;2022-07-23T15:25:23;3.28;;;2.03;;
48052;SDS011;33824;51.600;5.718;2022-07-23T15:27:49;3.80;;;2.10;;
48052;SDS011;33824;51.600;5.718;2022-07-23T15:30:14;5.50;;;2.15;;
48052;SDS011;33824;51.600;5.718;2022-07-23T15:32:40;4.95;;;2.63;;